sensor_id;sensor_type;location;lat;lon;timestamp;temperature;humidity
25208;DHT22;13153;52.316;21.166;2023-04-03T00:00:23;3.10;99.90
25208;DHT22;13153;52.316;21.166;2023-04-03T00:02:49;3.00;99.90
25208;DHT22;13153;52.316;21.166;2023-04-03T00:05:15;3.00;99.90
25208;DHT22;13153;52.316;21.166;2023-04-03T00:07:41;3.00;99.90
25208;DHT22;13153;52.316;21.166;2023-04-03T00:10:07;2.90;99.90
25208;DHT22;13153;52.316;21.166;2023-04-03T00:12:33;2.90;99.90
25208;DHT22;13153;52.316;21.166;2023-04-03T00:14:59;2.80;99.90
25208;DHT22;13153;52.316;21.166;2023-04-03T00:17:25;2.80;99.90
25208;DHT22;13153;52.316;21.166;2023-04-03T00:19:51;2.80;99.90
25208;DHT22;13153;52.316;21.166;2023-04-03T00:22:17;2.80;99.90
25208;DHT22;13153;52.316;21.166;2023-04-03T00:24:42;2.70;99.90
25208;DHT22;13153;52.316;21.166;2023-04-03T00:27:08;2.70;99.90
25208;DHT22;13153;52.316;21.166;2023-04-03T00:29:34;2.60;99.90
25208;DHT22;13153;52.316;21.166;2023-04-03T00:32:00;2.60;99.90
25208;DHT22;13153;52.316;21.166;2023-04-03T00:34:26;2.50;99.90
25208;DHT22;13153;52.316;21.166;2023-04-03T00:36:51;2.50;99.90
25208;DHT22;13153;52.316;21.166;2023-04-03T00:39:17;2.40;99.90
25208;DHT22;13153;52.316;21.166;2023-04-03T00:41:43;2.40;99.90
25208;DHT22;13153;52.316;21.166;2023-04-03T00:46:54;2.30;99.90
25208;DHT22;13153;52.316;21.166;2023-04-03T00:49:19;2.30;99.90
25208;DHT22;13153;52.316;21.166;2023-04-03T00:51:46;2.30;99.90
25208;DHT22;13153;52.316;21.166;2023-04-03T00:54:12;2.20;99.90
25208;DHT22;13153;52.316;21.166;2023-04-03T00:56:38;2.30;99.90
25208;DHT22;13153;52.316;21.166;2023-04-03T00:59:10;2.20;99.90
25208;DHT22;13153;52.316;21.166;2023-04-03T01:01:40;2.20;99.90
25208;DHT22;13153;52.316;21.166;2023-04-03T01:04:30;2.20;99.90
25208;DHT22;13153;52.316;21.166;2023-04-03T01:07:02;2.10;99.90
25208;DHT22;13153;52.316;21.166;2023-04-03T01:09:33;2.10;99.90
25208;DHT22;13153;52.316;21.166;2023-04-03T01:12:18;2.10;99.90
25208;DHT22;13153;52.316;21.166;2023-04-03T01:14:54;2.10;99.90
25208;DHT22;13153;52.316;21.166;2023-04-03T01:22:59;2.10;99.90
25208;DHT22;13153;52.316;21.166;2023-04-03T01:25:31;2.00;99.90
25208;DHT22;13153;52.316;21.166;2023-04-03T01:27:58;2.00;99.90
25208;DHT22;13153;52.316;21.166;2023-04-03T01:30:28;2.00;99.90
25208;DHT22;13153;52.316;21.166;2023-04-03T01:32:57;2.00;99.90
25208;DHT22;13153;52.316;21.166;2023-04-03T01:35:23;1.90;99.90
25208;DHT22;13153;52.316;21.166;2023-04-03T01:37:49;1.90;99.90
25208;DHT22;13153;52.316;21.166;2023-04-03T01:40:15;1.90;99.90
25208;DHT22;13153;52.316;21.166;2023-04-03T01:42:40;1.90;99.90
25208;DHT22;13153;52.316;21.166;2023-04-03T01:45:06;1.90;99.90
25208;DHT22;13153;52.316;21.166;2023-04-03T01:47:33;1.80;99.90
25208;DHT22;13153;52.316;21.166;2023-04-03T01:49:59;1.90;99.90
25208;DHT22;13153;52.316;21.166;2023-04-03T01:52:24;1.90;99.90
25208;DHT22;13153;52.316;21.166;2023-04-03T01:54:50;1.90;99.90
25208;DHT22;13153;52.316;21.166;2023-04-03T01:57:16;1.80;99.90
25208;DHT22;13153;52.316;21.166;2023-04-03T01:59:42;1.70;99.90
25208;DHT22;13153;52.316;21.166;2023-04-03T02:02:08;1.80;99.90
25208;DHT22;13153;52.316;21.166;2023-04-03T02:04:34;1.90;99.90
25208;DHT22;13153;52.316;21.166;2023-04-03T02:07:00;1.80;99.90
25208;DHT22;13153;52.316;21.166;2023-04-03T02:09:26;1.70;99.90
25208;DHT22;13153;52.316;21.166;2023-04-03T02:11:52;1.70;99.90
25208;DHT22;13153;52.316;21.166;2023-04-03T02:14:18;1.60;99.90
25208;DHT22;13153;52.316;21.166;2023-04-03T02:16:44;1.60;99.90
25208;DHT22;13153;52.316;21.166;2023-04-03T02:19:10;1.50;99.90
25208;DHT22;13153;52.316;21.166;2023-04-03T02:21:36;1.50;99.90
25208;DHT22;13153;52.316;21.166;2023-04-03T02:24:01;1.40;99.90
25208;DHT22;13153;52.316;21.166;2023-04-03T02:26:27;1.40;99.90
25208;DHT22;13153;52.316;21.166;2023-04-03T02:28:53;1.40;99.90
25208;DHT22;13153;52.316;21.166;2023-04-03T02:31:19;1.40;99.90
25208;DHT22;13153;52.316;21.166;2023-04-03T02:33:46;1.40;99.90
25208;DHT22;13153;52.316;21.166;2023-04-03T02:36:11;1.40;99.90
25208;DHT22;13153;52.316;21.166;2023-04-03T02:38:37;1.30;99.90
25208;DHT22;13153;52.316;21.166;2023-04-03T02:41:08;1.40;99.90
25208;DHT22;13153;52.316;21.166;2023-04-03T02:43:36;1.30;99.90
25208;DHT22;13153;52.316;21.166;2023-04-03T02:46:03;1.30;99.90
25208;DHT22;13153;52.316;21.166;2023-04-03T02:48:29;1.30;99.90
25208;DHT22;13153;52.316;21.166;2023-04-03T02:50:55;1.20;99.90
25208;DHT22;13153;52.316;21.166;2023-04-03T02:53:21;1.20;99.90
25208;DHT22;13153;52.316;21.166;2023-04-03T02:55:47;1.20;99.90
25208;DHT22;13153;52.316;21.166;2023-04-03T02:58:13;1.30;99.90
25208;DHT22;13153;52.316;21.166;2023-04-03T03:00:39;1.20;99.90
25208;DHT22;13153;52.316;21.166;2023-04-03T03:03:06;1.20;99.90
25208;DHT22;13153;52.316;21.166;2023-04-03T03:05:32;1.10;99.90
25208;DHT22;13153;52.316;21.166;2023-04-03T03:07:57;1.10;99.90
25208;DHT22;13153;52.316;21.166;2023-04-03T03:10:24;1.10;99.90
25208;DHT22;13153;52.316;21.166;2023-04-03T03:12:50;1.10;99.90
25208;DHT22;13153;52.316;21.166;2023-04-03T03:15:16;1.10;99.90
25208;DHT22;13153;52.316;21.166;2023-04-03T03:17:43;1.10;99.90
25208;DHT22;13153;52.316;21.166;2023-04-03T03:20:09;1.00;99.90
25208;DHT22;13153;52.316;21.166;2023-04-03T03:22:36;1.10;99.90
25208;DHT22;13153;52.316;21.166;2023-04-03T03:25:03;1.00;99.90
25208;DHT22;13153;52.316;21.166;2023-04-03T03:27:29;1.10;99.90
25208;DHT22;13153;52.316;21.166;2023-04-03T03:29:54;1.10;99.90
25208;DHT22;13153;52.316;21.166;2023-04-03T03:32:20;1.00;99.90
25208;DHT22;13153;52.316;21.166;2023-04-03T03:34:46;1.00;99.90
25208;DHT22;13153;52.316;21.166;2023-04-03T03:37:12;1.00;99.90
25208;DHT22;13153;52.316;21.166;2023-04-03T03:39:38;1.00;99.90
25208;DHT22;13153;52.316;21.166;2023-04-03T03:42:04;1.00;99.90
25208;DHT22;13153;52.316;21.166;2023-04-03T03:44:30;0.90;99.90
25208;DHT22;13153;52.316;21.166;2023-04-03T03:46:55;0.90;99.90
25208;DHT22;13153;52.316;21.166;2023-04-03T03:49:22;0.80;99.90
25208;DHT22;13153;52.316;21.166;2023-04-03T03:51:48;0.80;99.90
25208;DHT22;13153;52.316;21.166;2023-04-03T03:54:13;0.70;99.90
25208;DHT22;13153;52.316;21.166;2023-04-03T03:56:40;0.80;99.90
25208;DHT22;13153;52.316;21.166;2023-04-03T03:59:06;0.70;99.90
25208;DHT22;13153;52.316;21.166;2023-04-03T04:01:32;0.70;99.90
25208;DHT22;13153;52.316;21.166;2023-04-03T04:03:58;0.70;99.90
25208;DHT22;13153;52.316;21.166;2023-04-03T04:06:24;0.80;99.90
25208;DHT22;13153;52.316;21.166;2023-04-03T04:08:50;0.80;99.90
25208;DHT22;13153;52.316;21.166;2023-04-03T04:11:16;0.70;99.90
25208;DHT22;13153;52.316;21.166;2023-04-03T04:13:42;0.70;99.90
25208;DHT22;13153;52.316;21.166;2023-04-03T04:16:08;0.70;99.90
25208;DHT22;13153;52.316;21.166;2023-04-03T04:18:35;0.70;99.90
25208;DHT22;13153;52.316;21.166;2023-04-03T04:21:00;0.70;99.90
25208;DHT22;13153;52.316;21.166;2023-04-03T04:23:26;0.80;99.90
25208;DHT22;13153;52.316;21.166;2023-04-03T04:25:52;0.80;99.90
25208;DHT22;13153;52.316;21.166;2023-04-03T04:28:18;0.90;99.90
25208;DHT22;13153;52.316;21.166;2023-04-03T04:30:45;0.90;99.90
25208;DHT22;13153;52.316;21.166;2023-04-03T04:33:11;0.90;99.90
25208;DHT22;13153;52.316;21.166;2023-04-03T04:35:40;0.90;99.90
25208;DHT22;13153;52.316;21.166;2023-04-03T04:38:07;0.90;99.90
25208;DHT22;13153;52.316;21.166;2023-04-03T04:40:34;0.90;99.90
25208;DHT22;13153;52.316;21.166;2023-04-03T04:43:00;0.90;99.90
25208;DHT22;13153;52.316;21.166;2023-04-03T04:45:25;0.90;99.90
25208;DHT22;13153;52.316;21.166;2023-04-03T04:47:51;1.10;99.90
25208;DHT22;13153;52.316;21.166;2023-04-03T04:50:18;1.10;99.90
25208;DHT22;13153;52.316;21.166;2023-04-03T04:52:45;1.20;99.90
25208;DHT22;13153;52.316;21.166;2023-04-03T04:55:11;1.40;99.90
25208;DHT22;13153;52.316;21.166;2023-04-03T04:57:36;1.70;99.90
25208;DHT22;13153;52.316;21.166;2023-04-03T05:00:04;2.10;99.90
25208;DHT22;13153;52.316;21.166;2023-04-03T05:02:30;2.60;99.90
25208;DHT22;13153;52.316;21.166;2023-04-03T05:04:57;3.10;99.90
25208;DHT22;13153;52.316;21.166;2023-04-03T05:07:23;3.50;99.90
25208;DHT22;13153;52.316;21.166;2023-04-03T05:09:49;3.80;99.90
25208;DHT22;13153;52.316;21.166;2023-04-03T05:12:16;4.20;99.90
25208;DHT22;13153;52.316;21.166;2023-04-03T05:14:42;4.70;99.90
25208;DHT22;13153;52.316;21.166;2023-04-03T05:17:08;5.00;99.90
25208;DHT22;13153;52.316;21.166;2023-04-03T05:19:33;5.20;99.90
25208;DHT22;13153;52.316;21.166;2023-04-03T05:21:59;5.30;99.90
25208;DHT22;13153;52.316;21.166;2023-04-03T05:24:25;5.40;99.90
25208;DHT22;13153;52.316;21.166;2023-04-03T05:26:51;5.70;99.90
25208;DHT22;13153;52.316;21.166;2023-04-03T05:29:17;5.90;99.90
25208;DHT22;13153;52.316;21.166;2023-04-03T05:32:01;5.80;99.90
25208;DHT22;13153;52.316;21.166;2023-04-03T05:34:27;6.10;99.90
25208;DHT22;13153;52.316;21.166;2023-04-03T05:36:53;6.60;99.90
25208;DHT22;13153;52.316;21.166;2023-04-03T05:39:19;6.70;99.40
25208;DHT22;13153;52.316;21.166;2023-04-03T05:41:45;6.90;98.40
25208;DHT22;13153;52.316;21.166;2023-04-03T05:44:10;7.00;97.10
25208;DHT22;13153;52.316;21.166;2023-04-03T05:46:36;6.90;96.00
25208;DHT22;13153;52.316;21.166;2023-04-03T05:49:02;6.70;96.50
25208;DHT22;13153;52.316;21.166;2023-04-03T05:51:32;6.60;96.60
25208;DHT22;13153;52.316;21.166;2023-04-03T05:54:17;7.10;96.80
25208;DHT22;13153;52.316;21.166;2023-04-03T05:56:46;7.70;94.70
25208;DHT22;13153;52.316;21.166;2023-04-03T05:59:12;8.50;93.40
25208;DHT22;13153;52.316;21.166;2023-04-03T06:01:37;9.00;90.90
25208;DHT22;13153;52.316;21.166;2023-04-03T06:04:03;9.20;88.20
25208;DHT22;13153;52.316;21.166;2023-04-03T06:06:52;9.10;86.10
25208;DHT22;13153;52.316;21.166;2023-04-03T06:09:24;8.80;85.40
25208;DHT22;13153;52.316;21.166;2023-04-03T06:11:52;8.30;85.20
25208;DHT22;13153;52.316;21.166;2023-04-03T06:14:19;8.00;86.40
25208;DHT22;13153;52.316;21.166;2023-04-03T06:16:45;8.00;87.70
25208;DHT22;13153;52.316;21.166;2023-04-03T06:19:11;8.30;86.50
25208;DHT22;13153;52.316;21.166;2023-04-03T06:21:37;9.20;84.00
25208;DHT22;13153;52.316;21.166;2023-04-03T06:24:04;10.30;80.00
25208;DHT22;13153;52.316;21.166;2023-04-03T06:26:31;10.80;75.90
25208;DHT22;13153;52.316;21.166;2023-04-03T06:28:58;10.30;75.50
25208;DHT22;13153;52.316;21.166;2023-04-03T06:31:24;9.70;76.00
25208;DHT22;13153;52.316;21.166;2023-04-03T06:33:50;9.70;76.90
25208;DHT22;13153;52.316;21.166;2023-04-03T06:36:19;10.90;75.90
25208;DHT22;13153;52.316;21.166;2023-04-03T06:38:47;12.20;71.50
25208;DHT22;13153;52.316;21.166;2023-04-03T06:41:14;12.00;67.80
25208;DHT22;13153;52.316;21.166;2023-04-03T06:43:42;11.80;67.70
25208;DHT22;13153;52.316;21.166;2023-04-03T06:46:16;11.40;67.10
25208;DHT22;13153;52.316;21.166;2023-04-03T06:48:43;10.60;67.40
25208;DHT22;13153;52.316;21.166;2023-04-03T06:51:27;10.60;69.90
25208;DHT22;13153;52.316;21.166;2023-04-03T06:53:56;11.20;68.80
25208;DHT22;13153;52.316;21.166;2023-04-03T06:56:24;11.10;67.10
25208;DHT22;13153;52.316;21.166;2023-04-03T06:58:52;10.80;68.20
25208;DHT22;13153;52.316;21.166;2023-04-03T07:01:27;10.90;67.40
25208;DHT22;13153;52.316;21.166;2023-04-03T07:03:55;11.50;67.10
25208;DHT22;13153;52.316;21.166;2023-04-03T07:06:21;11.90;64.60
25208;DHT22;13153;52.316;21.166;2023-04-03T07:08:47;12.20;65.00
25208;DHT22;13153;52.316;21.166;2023-04-03T07:11:16;12.50;65.40
25208;DHT22;13153;52.316;21.166;2023-04-03T07:13:42;12.60;61.70
25208;DHT22;13153;52.316;21.166;2023-04-03T07:16:09;12.40;62.20
25208;DHT22;13153;52.316;21.166;2023-04-03T07:18:35;12.40;61.70
25208;DHT22;13153;52.316;21.166;2023-04-03T07:21:02;12.40;60.60
25208;DHT22;13153;52.316;21.166;2023-04-03T07:23:28;12.30;62.00
25208;DHT22;13153;52.316;21.166;2023-04-03T07:25:55;12.40;62.80
25208;DHT22;13153;52.316;21.166;2023-04-03T07:28:21;12.40;59.70
25208;DHT22;13153;52.316;21.166;2023-04-03T07:30:53;12.50;61.70
25208;DHT22;13153;52.316;21.166;2023-04-03T07:33:25;12.60;59.70
25208;DHT22;13153;52.316;21.166;2023-04-03T07:35:51;12.50;59.00
25208;DHT22;13153;52.316;21.166;2023-04-03T07:38:17;12.50;59.20
25208;DHT22;13153;52.316;21.166;2023-04-03T07:40:47;12.20;59.50
25208;DHT22;13153;52.316;21.166;2023-04-03T07:43:16;11.80;58.90
25208;DHT22;13153;52.316;21.166;2023-04-03T07:45:43;11.20;61.40
25208;DHT22;13153;52.316;21.166;2023-04-03T07:48:11;10.70;61.10
25208;DHT22;13153;52.316;21.166;2023-04-03T07:50:39;10.00;62.20
25208;DHT22;13153;52.316;21.166;2023-04-03T07:53:06;9.50;63.70
25208;DHT22;13153;52.316;21.166;2023-04-03T07:55:33;9.10;63.90
25208;DHT22;13153;52.316;21.166;2023-04-03T07:57:59;8.80;64.10
25208;DHT22;13153;52.316;21.166;2023-04-03T08:00:25;8.50;66.30
25208;DHT22;13153;52.316;21.166;2023-04-03T08:02:51;8.40;68.90
25208;DHT22;13153;52.316;21.166;2023-04-03T08:05:20;8.00;68.20
25208;DHT22;13153;52.316;21.166;2023-04-03T08:07:47;7.90;68.20
25208;DHT22;13153;52.316;21.166;2023-04-03T08:10:14;7.80;67.40
25208;DHT22;13153;52.316;21.166;2023-04-03T08:12:40;7.80;70.40
25208;DHT22;13153;52.316;21.166;2023-04-03T08:15:08;7.80;71.60
25208;DHT22;13153;52.316;21.166;2023-04-03T08:17:34;7.90;67.50
25208;DHT22;13153;52.316;21.166;2023-04-03T08:20:01;8.00;65.60
25208;DHT22;13153;52.316;21.166;2023-04-03T08:22:28;7.90;66.80
25208;DHT22;13153;52.316;21.166;2023-04-03T08:24:54;7.90;68.50
25208;DHT22;13153;52.316;21.166;2023-04-03T08:27:20;8.00;69.30
25208;DHT22;13153;52.316;21.166;2023-04-03T08:29:46;7.60;62.70
25208;DHT22;13153;52.316;21.166;2023-04-03T08:32:12;6.90;65.90
25208;DHT22;13153;52.316;21.166;2023-04-03T08:34:44;6.10;65.70
25208;DHT22;13153;52.316;21.166;2023-04-03T08:37:10;5.70;67.80
25208;DHT22;13153;52.316;21.166;2023-04-03T08:39:36;5.50;70.50
25208;DHT22;13153;52.316;21.166;2023-04-03T08:42:11;5.60;68.70
25208;DHT22;13153;52.316;21.166;2023-04-03T08:45:17;5.60;68.80
25208;DHT22;13153;52.316;21.166;2023-04-03T08:47:58;5.90;70.30
25208;DHT22;13153;52.316;21.166;2023-04-03T08:50:38;5.80;71.90
25208;DHT22;13153;52.316;21.166;2023-04-03T08:53:15;6.10;70.70
25208;DHT22;13153;52.316;21.166;2023-04-03T08:55:49;6.50;67.00
25208;DHT22;13153;52.316;21.166;2023-04-03T08:58:22;6.50;65.80
25208;DHT22;13153;52.316;21.166;2023-04-03T09:01:06;6.40;66.50
25208;DHT22;13153;52.316;21.166;2023-04-03T09:03:42;6.50;67.70
25208;DHT22;13153;52.316;21.166;2023-04-03T09:15:09;6.60;68.90
25208;DHT22;13153;52.316;21.166;2023-04-03T09:18:00;6.60;66.60
25208;DHT22;13153;52.316;21.166;2023-04-03T09:24:01;6.60;66.70
25208;DHT22;13153;52.316;21.166;2023-04-03T09:26:36;6.70;67.60
25208;DHT22;13153;52.316;21.166;2023-04-03T09:29:17;6.80;66.90
25208;DHT22;13153;52.316;21.166;2023-04-03T09:31:49;6.80;67.40
25208;DHT22;13153;52.316;21.166;2023-04-03T09:34:36;6.70;66.00
25208;DHT22;13153;52.316;21.166;2023-04-03T09:37:03;6.50;68.40
25208;DHT22;13153;52.316;21.166;2023-04-03T09:39:51;6.40;67.70
25208;DHT22;13153;52.316;21.166;2023-04-03T09:42:19;6.40;68.20
25208;DHT22;13153;52.316;21.166;2023-04-03T09:44:59;6.20;67.10
25208;DHT22;13153;52.316;21.166;2023-04-03T09:47:32;6.20;67.90
25208;DHT22;13153;52.316;21.166;2023-04-03T09:50:28;6.30;68.90
25208;DHT22;13153;52.316;21.166;2023-04-03T09:52:54;6.30;67.70
25208;DHT22;13153;52.316;21.166;2023-04-03T09:55:26;6.30;68.50
25208;DHT22;13153;52.316;21.166;2023-04-03T09:57:59;6.20;67.40
25208;DHT22;13153;52.316;21.166;2023-04-03T10:00:34;6.10;68.70
25208;DHT22;13153;52.316;21.166;2023-04-03T10:03:03;6.20;68.60
25208;DHT22;13153;52.316;21.166;2023-04-03T10:05:38;6.10;66.80
25208;DHT22;13153;52.316;21.166;2023-04-03T10:10:48;5.80;68.30
25208;DHT22;13153;52.316;21.166;2023-04-03T10:14:01;5.80;70.30
25208;DHT22;13153;52.316;21.166;2023-04-03T10:16:38;5.80;70.10
25208;DHT22;13153;52.316;21.166;2023-04-03T10:19:41;5.70;69.00
25208;DHT22;13153;52.316;21.166;2023-04-03T10:22:55;5.70;71.40
25208;DHT22;13153;52.316;21.166;2023-04-03T10:26:14;5.80;67.90
25208;DHT22;13153;52.316;21.166;2023-04-03T10:34:29;5.70;68.40
25208;DHT22;13153;52.316;21.166;2023-04-03T10:37:27;5.80;68.60
25208;DHT22;13153;52.316;21.166;2023-04-03T10:40:26;6.10;68.30
25208;DHT22;13153;52.316;21.166;2023-04-03T10:43:24;5.90;67.00
25208;DHT22;13153;52.316;21.166;2023-04-03T10:52:11;5.20;70.20
25208;DHT22;13153;52.316;21.166;2023-04-03T10:54:44;5.20;70.30
25208;DHT22;13153;52.316;21.166;2023-04-03T10:57:19;5.30;71.50
25208;DHT22;13153;52.316;21.166;2023-04-03T11:00:05;5.40;70.40
25208;DHT22;13153;52.316;21.166;2023-04-03T11:02:57;5.60;71.10
25208;DHT22;13153;52.316;21.166;2023-04-03T11:05:34;5.80;70.00
25208;DHT22;13153;52.316;21.166;2023-04-03T11:08:08;5.70;69.80
25208;DHT22;13153;52.316;21.166;2023-04-03T11:11:07;5.70;71.20
25208;DHT22;13153;52.316;21.166;2023-04-03T11:13:57;5.90;73.70
25208;DHT22;13153;52.316;21.166;2023-04-03T11:16:36;6.00;71.90
25208;DHT22;13153;52.316;21.166;2023-04-03T11:22:12;5.90;73.40
25208;DHT22;13153;52.316;21.166;2023-04-03T11:24:58;6.20;73.70
25208;DHT22;13153;52.316;21.166;2023-04-03T11:27:43;6.40;69.50
25208;DHT22;13153;52.316;21.166;2023-04-03T11:35:52;6.20;68.80
25208;DHT22;13153;52.316;21.166;2023-04-03T11:38:33;5.90;71.00
25208;DHT22;13153;52.316;21.166;2023-04-03T11:41:08;5.80;72.00
25208;DHT22;13153;52.316;21.166;2023-04-03T11:43:42;5.80;67.60
25208;DHT22;13153;52.316;21.166;2023-04-03T11:46:22;5.80;68.90
25208;DHT22;13153;52.316;21.166;2023-04-03T11:48:50;5.70;67.20
25208;DHT22;13153;52.316;21.166;2023-04-03T11:53:54;5.40;68.70
25208;DHT22;13153;52.316;21.166;2023-04-03T11:56:40;5.40;70.70
25208;DHT22;13153;52.316;21.166;2023-04-03T12:04:18;5.70;69.40
25208;DHT22;13153;52.316;21.166;2023-04-03T12:09:28;6.00;72.00
25208;DHT22;13153;52.316;21.166;2023-04-03T12:12:30;6.20;72.10
25208;DHT22;13153;52.316;21.166;2023-04-03T12:15:59;6.30;70.80
25208;DHT22;13153;52.316;21.166;2023-04-03T12:18:59;6.40;69.80
25208;DHT22;13153;52.316;21.166;2023-04-03T12:26:40;6.40;69.50
25208;DHT22;13153;52.316;21.166;2023-04-03T12:46:45;5.90;68.10
25208;DHT22;13153;52.316;21.166;2023-04-03T12:49:39;5.90;68.50
25208;DHT22;13153;52.316;21.166;2023-04-03T12:52:22;6.10;66.50
25208;DHT22;13153;52.316;21.166;2023-04-03T12:54:59;6.20;66.50
25208;DHT22;13153;52.316;21.166;2023-04-03T12:57:30;6.30;65.60
25208;DHT22;13153;52.316;21.166;2023-04-03T12:59:56;6.30;67.00
25208;DHT22;13153;52.316;21.166;2023-04-03T13:02:30;6.30;68.60
25208;DHT22;13153;52.316;21.166;2023-04-03T13:05:05;6.40;68.50
25208;DHT22;13153;52.316;21.166;2023-04-03T13:07:35;6.30;66.70
25208;DHT22;13153;52.316;21.166;2023-04-03T13:15:25;6.30;68.70
25208;DHT22;13153;52.316;21.166;2023-04-03T13:17:56;6.40;69.90
25208;DHT22;13153;52.316;21.166;2023-04-03T13:20:34;6.60;69.40
25208;DHT22;13153;52.316;21.166;2023-04-03T13:23:10;6.60;69.50
25208;DHT22;13153;52.316;21.166;2023-04-03T13:25:44;6.70;70.20
25208;DHT22;13153;52.316;21.166;2023-04-03T13:28:18;6.80;70.10
25208;DHT22;13153;52.316;21.166;2023-04-03T13:33:36;6.80;69.20
25208;DHT22;13153;52.316;21.166;2023-04-03T13:36:24;6.90;67.60
25208;DHT22;13153;52.316;21.166;2023-04-03T13:39:23;6.80;67.30
25208;DHT22;13153;52.316;21.166;2023-04-03T13:42:02;6.60;67.90
25208;DHT22;13153;52.316;21.166;2023-04-03T13:44:41;6.50;67.80
25208;DHT22;13153;52.316;21.166;2023-04-03T13:49:38;6.40;66.20
25208;DHT22;13153;52.316;21.166;2023-04-03T13:52:32;6.30;66.60
25208;DHT22;13153;52.316;21.166;2023-04-03T14:01:32;6.40;68.70
25208;DHT22;13153;52.316;21.166;2023-04-03T14:03:56;6.40;68.10
25208;DHT22;13153;52.316;21.166;2023-04-03T14:06:24;6.50;67.10
25208;DHT22;13153;52.316;21.166;2023-04-03T14:08:51;6.30;66.40
25208;DHT22;13153;52.316;21.166;2023-04-03T14:11:26;6.10;68.00
25208;DHT22;13153;52.316;21.166;2023-04-03T14:13:55;6.00;69.30
25208;DHT22;13153;52.316;21.166;2023-04-03T14:16:27;6.00;70.30
25208;DHT22;13153;52.316;21.166;2023-04-03T14:18:56;6.00;69.50
25208;DHT22;13153;52.316;21.166;2023-04-03T14:21:22;6.10;67.50
25208;DHT22;13153;52.316;21.166;2023-04-03T14:23:49;6.10;68.70
25208;DHT22;13153;52.316;21.166;2023-04-03T14:26:21;6.20;67.10
25208;DHT22;13153;52.316;21.166;2023-04-03T14:28:52;6.20;67.50
25208;DHT22;13153;52.316;21.166;2023-04-03T14:31:24;6.30;67.40
25208;DHT22;13153;52.316;21.166;2023-04-03T14:33:52;6.30;67.60
25208;DHT22;13153;52.316;21.166;2023-04-03T14:36:20;6.20;67.60
25208;DHT22;13153;52.316;21.166;2023-04-03T14:38:49;6.30;69.60
25208;DHT22;13153;52.316;21.166;2023-04-03T14:41:19;6.20;68.80
25208;DHT22;13153;52.316;21.166;2023-04-03T14:43:46;6.10;69.30
25208;DHT22;13153;52.316;21.166;2023-04-03T14:46:15;6.10;68.80
25208;DHT22;13153;52.316;21.166;2023-04-03T14:48:41;6.10;68.90
25208;DHT22;13153;52.316;21.166;2023-04-03T14:51:13;6.10;69.30
25208;DHT22;13153;52.316;21.166;2023-04-03T14:53:42;6.10;67.80
25208;DHT22;13153;52.316;21.166;2023-04-03T14:56:22;6.00;68.10
25208;DHT22;13153;52.316;21.166;2023-04-03T14:58:55;6.00;68.70
25208;DHT22;13153;52.316;21.166;2023-04-03T15:01:24;6.00;69.60
25208;DHT22;13153;52.316;21.166;2023-04-03T15:03:50;6.00;69.00
25208;DHT22;13153;52.316;21.166;2023-04-03T15:06:16;6.00;69.30
25208;DHT22;13153;52.316;21.166;2023-04-03T15:08:43;6.00;69.40
25208;DHT22;13153;52.316;21.166;2023-04-03T15:11:11;6.00;69.10
25208;DHT22;13153;52.316;21.166;2023-04-03T15:13:38;5.90;69.30
25208;DHT22;13153;52.316;21.166;2023-04-03T15:16:06;5.90;69.90
25208;DHT22;13153;52.316;21.166;2023-04-03T15:18:41;5.80;68.50
25208;DHT22;13153;52.316;21.166;2023-04-03T15:21:07;5.70;69.00
25208;DHT22;13153;52.316;21.166;2023-04-03T15:23:33;5.60;71.00
25208;DHT22;13153;52.316;21.166;2023-04-03T15:25:59;5.60;70.70
25208;DHT22;13153;52.316;21.166;2023-04-03T15:28:33;5.70;70.50
25208;DHT22;13153;52.316;21.166;2023-04-03T15:31:02;5.70;69.60
25208;DHT22;13153;52.316;21.166;2023-04-03T15:33:30;5.60;69.80
25208;DHT22;13153;52.316;21.166;2023-04-03T15:35:58;5.60;70.00
25208;DHT22;13153;52.316;21.166;2023-04-03T15:38:24;5.70;70.50
25208;DHT22;13153;52.316;21.166;2023-04-03T15:40:50;5.70;69.90
25208;DHT22;13153;52.316;21.166;2023-04-03T15:43:16;5.60;70.50
25208;DHT22;13153;52.316;21.166;2023-04-03T15:45:43;5.70;69.90
25208;DHT22;13153;52.316;21.166;2023-04-03T15:48:10;5.60;70.00
25208;DHT22;13153;52.316;21.166;2023-04-03T15:50:37;5.60;70.50
25208;DHT22;13153;52.316;21.166;2023-04-03T15:53:04;5.60;70.90
25208;DHT22;13153;52.316;21.166;2023-04-03T15:55:33;5.60;71.20
25208;DHT22;13153;52.316;21.166;2023-04-03T15:58:00;5.60;71.40
25208;DHT22;13153;52.316;21.166;2023-04-03T16:00:27;5.60;71.50
25208;DHT22;13153;52.316;21.166;2023-04-03T16:03:04;5.50;71.30
25208;DHT22;13153;52.316;21.166;2023-04-03T16:05:35;5.50;72.30
25208;DHT22;13153;52.316;21.166;2023-04-03T16:08:03;5.50;72.10
25208;DHT22;13153;52.316;21.166;2023-04-03T16:10:29;5.50;72.30
25208;DHT22;13153;52.316;21.166;2023-04-03T16:12:55;5.50;72.40
25208;DHT22;13153;52.316;21.166;2023-04-03T16:15:22;5.50;70.90
25208;DHT22;13153;52.316;21.166;2023-04-03T16:17:49;5.40;70.90
25208;DHT22;13153;52.316;21.166;2023-04-03T16:20:16;5.30;71.50
25208;DHT22;13153;52.316;21.166;2023-04-03T16:22:44;5.30;72.10
25208;DHT22;13153;52.316;21.166;2023-04-03T16:25:11;5.30;72.60
25208;DHT22;13153;52.316;21.166;2023-04-03T16:27:37;5.30;73.00
25208;DHT22;13153;52.316;21.166;2023-04-03T16:30:04;5.30;73.50
25208;DHT22;13153;52.316;21.166;2023-04-03T16:32:31;5.30;73.60
25208;DHT22;13153;52.316;21.166;2023-04-03T16:34:58;5.30;72.60
25208;DHT22;13153;52.316;21.166;2023-04-03T16:37:24;5.20;72.80
25208;DHT22;13153;52.316;21.166;2023-04-03T16:39:50;5.20;72.70
25208;DHT22;13153;52.316;21.166;2023-04-03T16:42:17;5.20;72.60
25208;DHT22;13153;52.316;21.166;2023-04-03T16:44:42;5.20;73.50
25208;DHT22;13153;52.316;21.166;2023-04-03T16:47:08;5.10;73.50
25208;DHT22;13153;52.316;21.166;2023-04-03T16:49:35;5.20;73.40
25208;DHT22;13153;52.316;21.166;2023-04-03T16:52:03;5.10;73.20
25208;DHT22;13153;52.316;21.166;2023-04-03T16:54:30;5.00;73.50
25208;DHT22;13153;52.316;21.166;2023-04-03T16:56:56;5.00;74.20
25208;DHT22;13153;52.316;21.166;2023-04-03T16:59:23;5.00;74.50
25208;DHT22;13153;52.316;21.166;2023-04-03T17:01:49;5.00;73.70
25208;DHT22;13153;52.316;21.166;2023-04-03T17:04:15;5.00;73.70
25208;DHT22;13153;52.316;21.166;2023-04-03T17:06:41;5.00;73.20
25208;DHT22;13153;52.316;21.166;2023-04-03T17:09:07;4.90;73.40
25208;DHT22;13153;52.316;21.166;2023-04-03T17:11:35;5.00;75.40
25208;DHT22;13153;52.316;21.166;2023-04-03T17:14:01;5.00;73.80
25208;DHT22;13153;52.316;21.166;2023-04-03T17:16:29;5.00;77.50
25208;DHT22;13153;52.316;21.166;2023-04-03T17:18:58;5.00;74.90
25208;DHT22;13153;52.316;21.166;2023-04-03T17:21:26;5.00;75.20
25208;DHT22;13153;52.316;21.166;2023-04-03T17:23:56;5.00;75.00